Time;durP1;ratioP1;P1;durP2;ratioP2;P2;SDS_P1;SDS_P2;PMS_P1;PMS_P2;Temp;Humidity;BMP_temperature;BMP_pressure;BME280_temperature;BME280_humidity;BME280_pressure;Samples;Min_cycle;Max_cycle;Signal;HPM_P1;HPM_P2
2022/01/10 00:02:19;;;;;;;23.87;12.10;;;;;;;;;;5121845;27;20804;-68
2022/01/10 00:04:44;;;;;;;22.47;11.80;;;;;;;;;;5105000;27;20203;-69
2022/01/10 00:07:09;;;;;;;24.47;12.27;;;;;;;;;;5122257;27;20170;-68
2022/01/10 00:09:35;;;;;;;19.10;11.47;;;;;;;;;;5123481;27;20674;-70
2022/01/10 00:12:00;;;;;;;23.30;11.50;;;;;;;;;;5121927;27;20175;-68
2022/01/10 00:14:25;;;;;;;20.60;12.13;;;;;;;;;;5123537;27;20616;-69
2022/01/10 00:16:50;;;;;;;20.53;11.43;;;;;;;;;;5123799;27;20187;-69
2022/01/10 00:19:15;;;;;;;22.67;11.83;;;;;;;;;;5124239;27;20198;-68
2022/01/10 00:21:40;;;;;;;21.67;12.00;;;;;;;;;;5124043;27;20190;-69
2022/01/10 00:24:06;;;;;;;27.63;12.77;;;;;;;;;;5121476;27;20597;-69
2022/01/10 00:26:31;;;;;;;25.93;12.20;;;;;;;;;;5114734;27;20228;-68
2022/01/10 00:28:56;;;;;;;19.33;12.17;;;;;;;;;;5108655;27;20202;-69
2022/01/10 00:31:21;;;;;;;22.87;12.37;;;;;;;;;;5109985;27;20443;-71
2022/01/10 00:33:46;;;;;;;25.50;13.77;;;;;;;;;;5109979;27;20843;-68
2022/01/10 00:36:12;;;;;;;22.07;13.23;;;;;;;;;;5105765;27;20183;-69
2022/01/10 00:38:37;;;;;;;30.00;15.00;;;;;;;;;;5105365;27;20189;-69
2022/01/10 00:41:02;;;;;;;30.17;15.57;;;;;;;;;;5077765;22;20292;-73
2022/01/10 00:43:33;;;;;;;29.63;16.27;;;;;;;;;;5058903;28;20654;-72
2022/01/10 00:45:59;;;;;;;21.43;14.13;;;;;;;;;;5061643;28;20276;-73
2022/01/10 00:48:24;;;;;;;27.77;13.77;;;;;;;;;;5065238;28;20177;-73
2022/01/10 00:50:49;;;;;;;24.83;14.23;;;;;;;;;;5062783;28;20313;-73
2022/01/10 00:53:15;;;;;;;24.73;14.80;;;;;;;;;;5058989;28;20649;-74
2022/01/10 00:55:40;;;;;;;31.10;15.17;;;;;;;;;;5061415;28;20188;-73
2022/01/10 00:58:05;;;;;;;23.13;15.17;;;;;;;;;;5059772;28;20188;-74
2022/01/10 01:00:30;;;;;;;25.97;15.03;;;;;;;;;;5061965;28;20276;-74
2022/01/10 01:02:58;;;;;;;29.07;15.27;;;;;;;;;;5062795;28;20228;-73
2022/01/10 01:05:24;;;;;;;23.37;13.47;;;;;;;;;;5061441;28;20177;-73
2022/01/10 01:07:49;;;;;;;28.00;15.30;;;;;;;;;;5070131;28;20171;-72
2022/01/10 01:13:07;;;;;;;24.83;14.67;;;;;;;;;;5063525;28;20220;-72
2022/01/10 01:15:44;;;;;;;24.77;14.40;;;;;;;;;;5067953;28;20192;-72
2022/01/10 01:18:12;;;;;;;26.33;14.70;;;;;;;;;;5067778;28;20188;-73
2022/01/10 01:25:47;;;;;;;24.30;14.60;;;;;;;;;;5062105;28;20194;-72
2022/01/10 01:28:12;;;;;;;28.43;14.73;;;;;;;;;;5063083;28;20181;-71
2022/01/10 01:30:37;;;;;;;24.73;14.40;;;;;;;;;;5061050;28;20192;-72
2022/01/10 01:33:03;;;;;;;28.67;14.97;;;;;;;;;;5062487;28;20200;-72
2022/01/10 01:35:28;;;;;;;21.83;14.20;;;;;;;;;;5059465;28;20184;-72
2022/01/10 01:37:54;;;;;;;24.50;15.17;;;;;;;;;;5059017;28;20173;-72
2022/01/10 01:40:21;;;;;;;22.57;14.20;;;;;;;;;;5040211;28;20219;-73
2022/01/10 01:42:47;;;;;;;33.27;15.47;;;;;;;;;;5058905;28;20573;-72
2022/01/10 01:45:13;;;;;;;22.60;14.57;;;;;;;;;;5061349;28;20204;-72
2022/01/10 01:47:39;;;;;;;24.40;15.30;;;;;;;;;;5063905;28;20276;-73
2022/01/10 01:50:05;;;;;;;27.30;15.87;;;;;;;;;;5068041;28;20275;-73
2022/01/10 01:52:30;;;;;;;22.07;15.30;;;;;;;;;;5060858;28;20204;-72
2022/01/10 01:54:56;;;;;;;27.60;14.67;;;;;;;;;;5061274;28;20622;-72
2022/01/10 01:57:21;;;;;;;33.13;14.93;;;;;;;;;;5039796;28;20391;-72
2022/01/10 01:59:47;;;;;;;23.83;14.70;;;;;;;;;;5060751;28;20196;-72
2022/01/10 02:02:12;;;;;;;29.33;15.70;;;;;;;;;;5063575;28;20649;-72
2022/01/10 02:04:37;;;;;;;39.40;17.47;;;;;;;;;;5068923;28;20201;-73
2022/01/10 02:07:03;;;;;;;39.03;17.93;;;;;;;;;;5060655;28;20669;-72
2022/01/10 02:09:28;;;;;;;31.70;17.43;;;;;;;;;;5062586;28;20200;-72
2022/01/10 02:11:53;;;;;;;40.40;17.80;;;;;;;;;;5040790;28;20200;-72
2022/01/10 02:14:18;;;;;;;27.13;15.57;;;;;;;;;;5062045;28;20806;-72
2022/01/10 02:16:52;;;;;;;28.70;16.17;;;;;;;;;;5066750;28;20653;-73
2022/01/10 02:19:17;;;;;;;31.43;16.00;;;;;;;;;;5065802;28;20252;-73
2022/01/10 02:21:42;;;;;;;33.87;17.50;;;;;;;;;;5070324;28;20594;-72
2022/01/10 02:24:07;;;;;;;31.93;17.87;;;;;;;;;;5063979;28;20956;-73
2022/01/10 02:26:33;;;;;;;33.97;17.67;;;;;;;;;;5063246;28;20180;-72
2022/01/10 02:28:59;;;;;;;31.47;17.93;;;;;;;;;;5063404;28;20271;-73
2022/01/10 02:31:24;;;;;;;25.90;15.83;;;;;;;;;;5050406;28;20237;-73
2022/01/10 02:33:51;;;;;;;37.73;18.63;;;;;;;;;;5066619;28;20215;-73
2022/01/10 02:36:25;;;;;;;34.80;17.60;;;;;;;;;;5064774;28;20181;-71
2022/01/10 02:38:54;;;;;;;37.73;17.43;;;;;;;;;;5065122;28;20694;-73
2022/01/10 02:41:27;;;;;;;26.97;16.67;;;;;;;;;;5064826;28;20199;-72
2022/01/10 02:43:53;;;;;;;32.33;17.57;;;;;;;;;;5061506;28;20205;-72
2022/01/10 02:46:18;;;;;;;31.93;18.10;;;;;;;;;;5064476;28;21380;-73
2022/01/10 02:48:44;;;;;;;29.10;17.43;;;;;;;;;;5068064;28;20204;-72
2022/01/10 02:51:09;;;;;;;33.43;17.70;;;;;;;;;;5064387;28;20184;-72
2022/01/10 02:53:34;;;;;;;36.23;17.57;;;;;;;;;;5066425;28;20570;-72
2022/01/10 02:55:59;;;;;;;33.13;17.43;;;;;;;;;;5070703;28;20231;-72
2022/01/10 02:58:25;;;;;;;29.80;16.77;;;;;;;;;;5063212;28;20566;-72
2022/01/10 03:00:50;;;;;;;25.73;15.47;;;;;;;;;;5071106;28;20274;-72
2022/01/10 03:03:15;;;;;;;35.13;16.27;;;;;;;;;;5058010;28;20261;-72
2022/01/10 03:05:40;;;;;;;27.60;16.07;;;;;;;;;;5063832;28;20189;-72
2022/01/10 03:08:05;;;;;;;31.50;16.37;;;;;;;;;;5063891;28;20179;-72
2022/01/10 03:10:31;;;;;;;29.60;17.40;;;;;;;;;;5061823;28;20195;-73
2022/01/10 03:12:57;;;;;;;32.67;17.30;;;;;;;;;;5063542;28;20212;-72
2022/01/10 03:15:22;;;;;;;32.80;19.23;;;;;;;;;;5064380;28;20249;-72
2022/01/10 03:17:47;;;;;;;28.80;19.00;;;;;;;;;;5064455;28;20184;-72
2022/01/10 03:20:12;;;;;;;32.40;19.23;;;;;;;;;;5067348;28;20209;-72
2022/01/10 03:22:38;;;;;;;36.97;19.90;;;;;;;;;;5065014;28;20645;-72
2022/01/10 03:25:03;;;;;;;34.37;20.43;;;;;;;;;;5064279;28;20200;-72
2022/01/10 03:27:28;;;;;;;33.80;19.20;;;;;;;;;;5061465;28;20279;-72
2022/01/10 03:29:54;;;;;;;28.40;18.20;;;;;;;;;;5062286;28;20230;-72
2022/01/10 03:32:19;;;;;;;31.13;19.30;;;;;;;;;;5062983;28;20176;-73
2022/01/10 03:34:45;;;;;;;29.53;18.83;;;;;;;;;;5061231;28;20185;-72
2022/01/10 03:37:10;;;;;;;34.03;20.47;;;;;;;;;;5063947;28;20176;-72
2022/01/10 03:39:35;;;;;;;43.57;21.70;;;;;;;;;;5057398;28;20329;-72
2022/01/10 03:42:01;;;;;;;33.17;21.17;;;;;;;;;;5063008;28;20188;-72
2022/01/10 03:44:26;;;;;;;44.67;22.10;;;;;;;;;;5045748;28;20204;-72
2022/01/10 03:46:51;;;;;;;38.30;21.97;;;;;;;;;;5046542;28;20211;-72
2022/01/10 03:49:16;;;;;;;40.00;22.87;;;;;;;;;;5075910;28;20583;-72
2022/01/10 03:51:41;;;;;;;41.33;25.20;;;;;;;;;;5049683;28;20188;-72
2022/01/10 03:54:07;;;;;;;35.83;22.83;;;;;;;;;;5063261;28;20204;-72
2022/01/10 03:56:32;;;;;;;40.23;22.77;;;;;;;;;;5061473;28;20463;-72
2022/01/10 03:58:58;;;;;;;36.07;22.77;;;;;;;;;;5064142;28;20499;-72
2022/01/10 04:01:23;;;;;;;53.53;25.63;;;;;;;;;;5045046;28;20185;-72
2022/01/10 04:03:48;;;;;;;48.03;24.70;;;;;;;;;;5071915;28;20311;-72
2022/01/10 04:06:14;;;;;;;44.40;23.87;;;;;;;;;;5063733;28;20855;-72
2022/01/10 04:08:39;;;;;;;44.23;23.53;;;;;;;;;;5066553;28;20781;-73
2022/01/10 04:11:04;;;;;;;40.17;23.00;;;;;;;;;;5061649;28;20192;-72
2022/01/10 04:13:30;;;;;;;39.03;24.70;;;;;;;;;;5062642;28;20187;-72
2022/01/10 04:15:55;;;;;;;37.80;23.80;;;;;;;;;;5065096;28;20261;-72
2022/01/10 04:18:20;;;;;;;47.83;25.33;;;;;;;;;;5066262;28;21469;-72
2022/01/10 04:20:46;;;;;;;41.73;22.20;;;;;;;;;;5064496;28;20208;-72
2022/01/10 04:23:12;;;;;;;39.67;22.27;;;;;;;;;;5064133;28;20197;-72
2022/01/10 04:25:37;;;;;;;47.20;25.40;;;;;;;;;;5061647;28;20180;-72
2022/01/10 04:28:02;;;;;;;45.00;25.10;;;;;;;;;;5062872;28;20351;-72
2022/01/10 04:30:27;;;;;;;55.93;25.57;;;;;;;;;;5062514;28;20230;-72
2022/01/10 04:32:53;;;;;;;47.20;25.27;;;;;;;;;;5063367;28;20177;-73
2022/01/10 04:35:18;;;;;;;41.70;23.83;;;;;;;;;;5061559;28;20233;-72
2022/01/10 04:37:43;;;;;;;36.70;22.70;;;;;;;;;;5061369;28;20184;-72
2022/01/10 04:40:08;;;;;;;34.97;22.50;;;;;;;;;;5067525;28;20211;-72
2022/01/10 04:42:34;;;;;;;43.50;23.37;;;;;;;;;;5063132;28;20665;-72
2022/01/10 04:44:59;;;;;;;45.37;25.53;;;;;;;;;;5061739;28;20176;-72
2022/01/10 04:47:24;;;;;;;35.23;23.17;;;;;;;;;;5051471;28;20176;-72
2022/01/10 04:50:03;;;;;;;35.50;21.60;;;;;;;;;;5063199;28;20204;-73
2022/01/10 04:52:29;;;;;;;46.67;24.47;;;;;;;;;;5061833;28;20467;-73
2022/01/10 04:54:54;;;;;;;36.40;22.47;;;;;;;;;;5063445;28;20915;-72
2022/01/10 04:57:20;;;;;;;44.27;24.13;;;;;;;;;;5044915;28;20247;-73
2022/01/10 04:59:45;;;;;;;39.47;21.93;;;;;;;;;;5060709;28;20844;-73
2022/01/10 05:02:10;;;;;;;43.80;23.67;;;;;;;;;;5062735;28;20817;-72
2022/01/10 05:04:35;;;;;;;44.93;24.43;;;;;;;;;;5066314;28;20301;-72
2022/01/10 05:07:01;;;;;;;40.33;23.37;;;;;;;;;;5060671;28;20173;-72
2022/01/10 05:09:26;;;;;;;39.43;21.97;;;;;;;;;;5060911;28;20197;-72
2022/01/10 05:11:51;;;;;;;38.40;23.03;;;;;;;;;;5061249;28;20173;-72
2022/01/10 05:14:16;;;;;;;37.50;21.67;;;;;;;;;;5061015;28;21424;-73
2022/01/10 05:16:43;;;;;;;38.87;21.47;;;;;;;;;;5065631;28;21748;-72
2022/01/10 05:19:08;;;;;;;34.27;21.67;;;;;;;;;;5064747;28;20195;-71
2022/01/10 05:21:33;;;;;;;42.30;21.97;;;;;;;;;;5060879;28;20183;-73
2022/01/10 05:23:58;;;;;;;36.30;20.27;;;;;;;;;;5041308;28;20196;-71
2022/01/10 05:26:23;;;;;;;41.67;23.17;;;;;;;;;;5067570;28;20184;-72
2022/01/10 05:28:49;;;;;;;35.00;21.80;;;;;;;;;;5062676;28;20715;-72
2022/01/10 05:31:14;;;;;;;33.60;20.17;;;;;;;;;;5059770;28;20177;-73
2022/01/10 05:33:39;;;;;;;40.83;22.80;;;;;;;;;;5060713;28;20204;-71
2022/01/10 05:36:04;;;;;;;36.43;22.50;;;;;;;;;;5063175;28;20185;-74
2022/01/10 05:38:30;;;;;;;36.97;22.40;;;;;;;;;;5060856;28;20193;-72
2022/01/10 05:40:55;;;;;;;45.90;22.80;;;;;;;;;;5060410;28;20208;-72
2022/01/10 05:43:20;;;;;;;41.37;21.77;;;;;;;;;;5060227;28;20257;-73
2022/01/10 05:45:45;;;;;;;32.67;19.80;;;;;;;;;;5059861;28;20176;-72
2022/01/10 05:48:14;;;;;;;41.13;20.67;;;;;;;;;;5046216;28;20176;-72
2022/01/10 05:50:42;;;;;;;33.33;21.27;;;;;;;;;;5069839;28;20196;-72
2022/01/10 05:53:08;;;;;;;38.50;20.30;;;;;;;;;;5041667;28;20188;-72
2022/01/10 05:55:35;;;;;;;37.20;21.83;;;;;;;;;;5059668;28;20184;-72
2022/01/10 05:58:00;;;;;;;36.47;20.83;;;;;;;;;;5058878;28;20677;-72
2022/01/10 06:00:26;;;;;;;35.30;19.93;;;;;;;;;;5061694;28;20211;-72
2022/01/10 06:02:51;;;;;;;34.80;19.83;;;;;;;;;;5069016;28;20555;-72
2022/01/10 06:05:16;;;;;;;40.30;20.30;;;;;;;;;;5045202;28;20183;-73
2022/01/10 06:07:42;;;;;;;35.97;22.20;;;;;;;;;;5059806;28;20725;-72
2022/01/10 06:10:07;;;;;;;38.40;20.83;;;;;;;;;;5059520;28;20380;-72
2022/01/10 06:12:33;;;;;;;33.80;20.83;;;;;;;;;;5059712;28;20208;-72
2022/01/10 06:14:58;;;;;;;31.77;20.03;;;;;;;;;;5060090;28;20172;-72
2022/01/10 06:17:23;;;;;;;42.43;20.80;;;;;;;;;;5065734;28;20204;-72
2022/01/10 06:19:48;;;;;;;40.67;20.03;;;;;;;;;;5062176;28;20195;-72
2022/01/10 06:22:13;;;;;;;36.43;20.10;;;;;;;;;;5059172;28;20781;-72
2022/01/10 06:24:39;;;;;;;38.80;20.50;;;;;;;;;;5045043;28;20196;-72
2022/01/10 06:27:04;;;;;;;34.20;21.07;;;;;;;;;;5065909;28;20918;-72
2022/01/10 06:29:29;;;;;;;37.57;21.00;;;;;;;;;;5060742;28;20212;-72
2022/01/10 06:31:54;;;;;;;32.43;19.77;;;;;;;;;;5061889;28;20188;-72
2022/01/10 06:34:20;;;;;;;39.30;20.13;;;;;;;;;;5059069;28;20187;-73
2022/01/10 06:36:45;;;;;;;43.77;22.27;;;;;;;;;;5058228;28;20784;-72
2022/01/10 06:39:11;;;;;;;35.87;19.30;;;;;;;;;;5043903;28;20651;-71
2022/01/10 06:41:36;;;;;;;36.77;19.63;;;;;;;;;;5054982;22;20237;-70
2022/01/10 06:44:01;;;;;;;39.27;20.53;;;;;;;;;;5043688;28;20409;-69
2022/01/10 06:46:27;;;;;;;40.53;22.50;;;;;;;;;;5046305;28;20184;-71
2022/01/10 06:48:52;;;;;;;35.17;21.20;;;;;;;;;;5047265;28;20193;-71
2022/01/10 06:51:17;;;;;;;34.80;20.87;;;;;;;;;;5033940;28;20200;-68
2022/01/10 06:53:42;;;;;;;34.63;20.93;;;;;;;;;;5032070;28;20941;-68
2022/01/10 06:56:07;;;;;;;34.23;21.03;;;;;;;;;;5030990;28;21504;-68
2022/01/10 06:58:33;;;;;;;43.13;22.93;;;;;;;;;;5032721;28;20243;-70
2022/01/10 07:00:58;;;;;;;35.13;21.00;;;;;;;;;;5032489;28;20216;-69
2022/01/10 07:03:23;;;;;;;35.47;21.10;;;;;;;;;;5019873;28;20395;-71
2022/01/10 07:05:48;;;;;;;34.33;20.87;;;;;;;;;;5034637;28;20189;-69
2022/01/10 07:08:13;;;;;;;37.27;21.13;;;;;;;;;;5038632;28;20635;-69
2022/01/10 07:10:39;;;;;;;45.77;20.63;;;;;;;;;;5040633;28;20213;-70
2022/01/10 07:13:04;;;;;;;30.33;19.30;;;;;;;;;;5039055;28;20181;-70
2022/01/10 07:15:29;;;;;;;30.80;21.17;;;;;;;;;;5048072;28;20211;-70
2022/01/10 07:17:55;;;;;;;46.93;21.07;;;;;;;;;;5052901;28;20565;-69
2022/01/10 07:20:21;;;;;;;30.63;20.17;;;;;;;;;;5039411;28;20198;-69
2022/01/10 07:22:46;;;;;;;33.87;20.20;;;;;;;;;;5029236;28;20185;-69
2022/01/10 07:25:11;;;;;;;31.57;21.03;;;;;;;;;;5037859;28;20235;-68
2022/01/10 07:27:36;;;;;;;35.50;21.23;;;;;;;;;;5045752;28;20172;-68
2022/01/10 07:30:04;;;;;;;40.17;19.90;;;;;;;;;;5041177;28;20193;-70
2022/01/10 07:32:29;;;;;;;38.47;21.33;;;;;;;;;;5020962;28;20982;-70
2022/01/10 07:34:55;;;;;;;32.20;19.83;;;;;;;;;;5020485;28;20196;-69
2022/01/10 07:37:20;;;;;;;36.83;20.60;;;;;;;;;;5037715;28;22018;-69
2022/01/10 07:39:45;;;;;;;34.93;21.17;;;;;;;;;;5038375;28;20662;-69
2022/01/10 07:42:11;;;;;;;39.20;21.97;;;;;;;;;;5035159;28;20239;-69
2022/01/10 07:44:36;;;;;;;36.73;21.47;;;;;;;;;;5039035;28;20208;-69
2022/01/10 07:47:02;;;;;;;30.87;21.43;;;;;;;;;;5040009;28;20263;-70
2022/01/10 07:49:27;;;;;;;31.97;20.97;;;;;;;;;;5035217;28;20911;-69
2022/01/10 07:51:57;;;;;;;37.77;20.70;;;;;;;;;;5037607;28;20643;-70
2022/01/10 07:54:22;;;;;;;35.00;21.37;;;;;;;;;;5041679;28;20197;-68
2022/01/10 07:56:47;;;;;;;33.20;19.90;;;;;;;;;;5036508;28;20209;-70
2022/01/10 07:59:12;;;;;;;30.63;21.57;;;;;;;;;;5035591;28;20193;-69
2022/01/10 08:01:38;;;;;;;32.33;20.70;;;;;;;;;;5040182;28;20199;-68
2022/01/10 08:04:03;;;;;;;38.50;21.40;;;;;;;;;;5038340;28;20211;-69
2022/01/10 08:06:28;;;;;;;40.13;22.53;;;;;;;;;;5039820;28;20634;-69
2022/01/10 08:08:54;;;;;;;38.60;22.10;;;;;;;;;;5018757;28;20635;-69
2022/01/10 08:11:19;;;;;;;35.73;22.17;;;;;;;;;;5041142;28;20202;-69
2022/01/10 08:13:44;;;;;;;41.27;21.70;;;;;;;;;;5035844;28;20193;-69
2022/01/10 08:16:10;;;;;;;37.47;21.33;;;;;;;;;;5034168;28;20444;-69
2022/01/10 08:18:35;;;;;;;34.10;20.90;;;;;;;;;;5034326;28;20177;-69
2022/01/10 08:21:01;;;;;;;36.93;22.00;;;;;;;;;;5032665;28;20261;-68
2022/01/10 08:23:26;;;;;;;38.40;23.40;;;;;;;;;;5020545;28;20216;-68
2022/01/10 08:25:51;;;;;;;41.77;22.23;;;;;;;;;;5037377;28;20554;-68
2022/01/10 08:28:17;;;;;;;44.23;23.63;;;;;;;;;;5035988;28;20173;-68
2022/01/10 08:30:42;;;;;;;38.67;22.20;;;;;;;;;;5038295;28;20278;-68
2022/01/10 08:33:07;;;;;;;38.93;21.93;;;;;;;;;;5036094;28;20178;-70
2022/01/10 08:35:33;;;;;;;33.23;22.73;;;;;;;;;;5052134;28;20680;-70
2022/01/10 08:37:58;;;;;;;32.60;23.33;;;;;;;;;;5055922;28;20182;-69
2022/01/10 08:40:23;;;;;;;37.03;22.63;;;;;;;;;;5060321;28;20223;-70
2022/01/10 08:42:49;;;;;;;36.53;24.13;;;;;;;;;;5029668;28;20188;-69
2022/01/10 08:45:14;;;;;;;44.13;23.00;;;;;;;;;;5031119;28;20703;-71
2022/01/10 08:47:39;;;;;;;37.57;22.73;;;;;;;;;;5029188;28;21117;-70
2022/01/10 08:50:06;;;;;;;49.17;23.70;;;;;;;;;;5033650;28;20206;-70
2022/01/10 08:52:31;;;;;;;41.77;24.30;;;;;;;;;;5037624;28;20722;-70
2022/01/10 08:54:56;;;;;;;36.47;22.50;;;;;;;;;;5034538;28;20193;-69
2022/01/10 08:57:21;;;;;;;38.17;22.83;;;;;;;;;;5019476;28;20177;-69
2022/01/10 08:59:46;;;;;;;44.23;23.93;;;;;;;;;;5040356;28;20998;-70
2022/01/10 09:02:12;;;;;;;43.70;23.87;;;;;;;;;;5037601;28;20186;-69
2022/01/10 09:04:37;;;;;;;38.40;23.63;;;;;;;;;;5037997;28;20254;-69
2022/01/10 09:07:03;;;;;;;37.97;24.13;;;;;;;;;;5019273;28;20185;-70
2022/01/10 09:09:28;;;;;;;35.53;22.70;;;;;;;;;;5037431;28;20174;-68
2022/01/10 09:11:54;;;;;;;35.43;22.67;;;;;;;;;;5034601;28;20178;-69
2022/01/10 09:14:19;;;;;;;44.30;24.27;;;;;;;;;;5036989;28;20938;-69
2022/01/10 09:16:44;;;;;;;41.33;23.27;;;;;;;;;;5043170;28;20178;-69
2022/01/10 09:19:10;;;;;;;46.90;24.93;;;;;;;;;;5055829;28;20650;-70
2022/01/10 09:21:35;;;;;;;41.70;24.63;;;;;;;;;;5037613;28;20204;-70
2022/01/10 09:24:01;;;;;;;38.13;24.37;;;;;;;;;;5022673;28;20352;-68
2022/01/10 09:26:26;;;;;;;43.57;27.23;;;;;;;;;;5038218;28;20265;-68
2022/01/10 09:28:52;;;;;;;43.40;24.70;;;;;;;;;;5036023;28;20209;-70
2022/01/10 09:31:17;;;;;;;38.57;25.27;;;;;;;;;;5017208;28;20236;-69
2022/01/10 09:33:43;;;;;;;39.77;24.40;;;;;;;;;;5036892;28;20174;-69
2022/01/10 09:36:08;;;;;;;44.60;26.13;;;;;;;;;;5034974;28;20181;-69
2022/01/10 09:38:34;;;;;;;35.57;24.00;;;;;;;;;;5035336;28;20207;-70
2022/01/10 09:40:59;;;;;;;41.10;26.10;;;;;;;;;;5019123;28;20221;-70
2022/01/10 09:43:25;;;;;;;41.60;25.07;;;;;;;;;;5035982;28;20693;-70
2022/01/10 09:45:54;;;;;;;39.30;23.63;;;;;;;;;;5038917;28;20197;-70
2022/01/10 09:48:20;;;;;;;40.10;25.43;;;;;;;;;;5038805;28;20260;-69
2022/01/10 09:50:45;;;;;;;38.43;24.30;;;;;;;;;;5042594;28;20320;-70
2022/01/10 09:53:11;;;;;;;36.57;23.63;;;;;;;;;;5019199;28;20647;-70
2022/01/10 09:55:36;;;;;;;35.33;24.00;;;;;;;;;;5041489;28;20617;-69
2022/01/10 09:58:03;;;;;;;41.20;25.23;;;;;;;;;;5035388;28;20180;-70
2022/01/10 10:00:29;;;;;;;41.33;23.63;;;;;;;;;;5019278;28;20212;-69
2022/01/10 10:02:54;;;;;;;37.20;23.73;;;;;;;;;;5039769;28;20178;-70
2022/01/10 10:05:19;;;;;;;36.47;22.33;;;;;;;;;;5040798;28;20270;-70
2022/01/10 10:07:44;;;;;;;36.40;23.10;;;;;;;;;;5039648;28;20181;-69
2022/01/10 10:10:13;;;;;;;32.63;21.97;;;;;;;;;;5059704;28;20197;-69
2022/01/10 10:12:43;;;;;;;34.73;22.63;;;;;;;;;;5041426;28;20178;-69
2022/01/10 10:15:11;;;;;;;36.90;22.80;;;;;;;;;;5032844;28;20182;-69
2022/01/10 10:17:37;;;;;;;39.07;24.80;;;;;;;;;;5042628;28;20195;-70
2022/01/10 10:20:07;;;;;;;34.07;21.67;;;;;;;;;;5044048;28;20201;-69
2022/01/10 10:22:32;;;;;;;37.20;21.63;;;;;;;;;;5016044;28;20193;-69
2022/01/10 10:24:57;;;;;;;33.80;21.17;;;;;;;;;;5034504;28;20232;-70
2022/01/10 10:27:24;;;;;;;33.50;20.50;;;;;;;;;;5034413;28;20199;-70
2022/01/10 10:29:49;;;;;;;38.37;22.97;;;;;;;;;;5035811;28;20209;-70
2022/01/10 10:32:17;;;;;;;29.87;20.93;;;;;;;;;;5019501;28;20184;-68
2022/01/10 10:34:42;;;;;;;34.33;20.37;;;;;;;;;;5025187;28;20292;-69
2022/01/10 10:37:12;;;;;;;37.13;21.80;;;;;;;;;;5036983;28;20663;-68
2022/01/10 10:39:38;;;;;;;33.40;20.10;;;;;;;;;;5038837;28;20201;-69
2022/01/10 10:42:05;;;;;;;30.13;19.47;;;;;;;;;;5025134;28;20262;-69
2022/01/10 10:44:31;;;;;;;29.80;18.63;;;;;;;;;;5024778;28;20204;-69
2022/01/10 10:46:56;;;;;;;27.60;18.07;;;;;;;;;;5020824;28;20242;-70
2022/01/10 10:49:30;;;;;;;31.73;19.00;;;;;;;;;;5041037;28;20203;-70
2022/01/10 10:51:55;;;;;;;23.47;17.63;;;;;;;;;;5039560;28;20181;-68
2022/01/10 10:54:22;;;;;;;37.93;18.73;;;;;;;;;;5044904;28;20176;-69
2022/01/10 10:56:47;;;;;;;26.90;19.07;;;;;;;;;;5040256;28;20186;-69
2022/01/10 10:59:13;;;;;;;27.03;17.07;;;;;;;;;;5023939;28;20180;-69
2022/01/10 11:01:40;;;;;;;25.20;17.20;;;;;;;;;;5037882;28;20212;-71
2022/01/10 11:04:05;;;;;;;33.97;17.43;;;;;;;;;;5040276;28;20286;-71
2022/01/10 11:06:31;;;;;;;25.40;15.47;;;;;;;;;;5040192;28;20215;-70
2022/01/10 11:08:57;;;;;;;24.57;15.80;;;;;;;;;;5023115;28;20176;-70
2022/01/10 11:11:23;;;;;;;24.60;16.57;;;;;;;;;;5037694;28;20193;-70
2022/01/10 11:13:49;;;;;;;25.97;17.47;;;;;;;;;;5040352;28;20223;-70
2022/01/10 11:16:14;;;;;;;26.30;17.13;;;;;;;;;;5021021;28;20214;-69
2022/01/10 11:18:40;;;;;;;22.30;15.70;;;;;;;;;;5039839;28;20744;-69
2022/01/10 11:21:05;;;;;;;24.40;16.30;;;;;;;;;;5022203;28;20208;-69
2022/01/10 11:23:31;;;;;;;26.60;16.83;;;;;;;;;;5034702;28;20740;-71
2022/01/10 11:25:57;;;;;;;25.37;15.40;;;;;;;;;;5041173;28;20181;-70
2022/01/10 11:28:23;;;;;;;26.87;16.33;;;;;;;;;;5039919;28;20200;-70
2022/01/10 11:30:51;;;;;;;26.13;16.17;;;;;;;;;;5042507;28;20217;-70
2022/01/10 11:33:16;;;;;;;28.10;16.40;;;;;;;;;;5043516;28;20220;-71
2022/01/10 11:35:43;;;;;;;26.60;16.50;;;;;;;;;;5020594;28;20272;-71
2022/01/10 11:38:16;;;;;;;26.63;15.90;;;;;;;;;;5039620;28;20204;-70
2022/01/10 11:40:42;;;;;;;23.10;16.33;;;;;;;;;;5037802;28;20220;-71
2022/01/10 11:43:07;;;;;;;22.57;15.40;;;;;;;;;;5037123;28;20680;-70
2022/01/10 11:45:40;;;;;;;23.30;15.70;;;;;;;;;;5025120;28;20177;-69
2022/01/10 11:48:11;;;;;;;20.13;15.20;;;;;;;;;;5038886;28;20185;-69
2022/01/10 11:50:40;;;;;;;21.47;15.17;;;;;;;;;;5037551;28;20329;-69
2022/01/10 11:53:05;;;;;;;26.90;15.87;;;;;;;;;;5017374;28;22023;-70
2022/01/10 11:55:30;;;;;;;23.37;14.20;;;;;;;;;;5036942;28;20197;-70
2022/01/10 11:58:05;;;;;;;26.80;15.40;;;;;;;;;;5037783;28;20185;-70
2022/01/10 12:00:36;;;;;;;20.63;14.77;;;;;;;;;;5038399;28;20208;-70
2022/01/10 12:03:02;;;;;;;23.33;14.37;;;;;;;;;;5041302;28;20236;-69
2022/01/10 12:05:27;;;;;;;24.77;14.50;;;;;;;;;;5021392;28;20181;-70
2022/01/10 12:07:52;;;;;;;21.43;13.60;;;;;;;;;;5037167;28;20199;-71
2022/01/10 12:10:17;;;;;;;22.10;13.60;;;;;;;;;;5038733;28;20259;-70
2022/01/10 12:12:43;;;;;;;21.77;15.50;;;;;;;;;;5042916;28;20196;-70
2022/01/10 12:15:08;;;;;;;22.73;14.70;;;;;;;;;;5042933;28;20514;-69
2022/01/10 12:17:36;;;;;;;22.33;13.03;;;;;;;;;;5045212;28;20268;-70
2022/01/10 12:20:02;;;;;;;22.00;14.17;;;;;;;;;;5041050;28;20592;-70
2022/01/10 12:22:27;;;;;;;24.10;13.73;;;;;;;;;;5039574;28;20209;-70
2022/01/10 12:24:53;;;;;;;22.90;14.60;;;;;;;;;;5037337;28;20729;-69
2022/01/10 12:27:18;;;;;;;21.63;13.87;;;;;;;;;;5035694;28;20187;-69
2022/01/10 12:29:43;;;;;;;22.93;13.63;;;;;;;;;;5037301;28;20205;-68
2022/01/10 12:32:11;;;;;;;22.00;13.63;;;;;;;;;;5039367;28;20186;-68
2022/01/10 12:34:38;;;;;;;25.70;14.20;;;;;;;;;;5036632;28;20173;-68
2022/01/10 12:37:03;;;;;;;21.00;14.03;;;;;;;;;;5041462;28;20750;-69
2022/01/10 12:39:30;;;;;;;15.57;12.27;;;;;;;;;;5034666;28;20181;-72
2022/01/10 12:41:58;;;;;;;17.30;12.52;;;;;;;;;;5081240;23;20720;-71
2022/01/10 12:44:24;;;;;;;17.85;13.05;;;;;;;;;;5070174;28;20216;-72
2022/01/10 12:46:50;;;;;;;16.90;12.70;;;;;;;;;;5074893;28;20180;-71
2022/01/10 12:49:15;;;;;;;19.02;12.63;;;;;;;;;;5072771;28;20667;-72
2022/01/10 12:51:42;;;;;;;19.73;13.05;;;;;;;;;;5074865;28;20211;-72
2022/01/10 12:54:12;;;;;;;20.30;13.38;;;;;;;;;;5075351;28;20213;-72
2022/01/10 12:56:37;;;;;;;17.85;12.05;;;;;;;;;;5073451;28;20230;-72
2022/01/10 12:59:03;;;;;;;19.08;12.20;;;;;;;;;;5071759;28;20193;-72
2022/01/10 13:01:28;;;;;;;20.52;11.80;;;;;;;;;;5072512;28;20196;-71
2022/01/10 13:03:56;;;;;;;22.63;13.13;;;;;;;;;;5073473;28;20287;-71
2022/01/10 13:06:21;;;;;;;21.23;12.57;;;;;;;;;;5050469;28;20177;-71
2022/01/10 13:08:47;;;;;;;24.85;13.43;;;;;;;;;;5072588;28;20184;-71
2022/01/10 13:11:17;;;;;;;19.80;12.07;;;;;;;;;;5071398;28;20196;-70
2022/01/10 13:13:48;;;;;;;20.85;13.60;;;;;;;;;;5073182;28;20176;-71
2022/01/10 13:16:25;;;;;;;18.88;12.95;;;;;;;;;;5073121;28;20844;-71
2022/01/10 13:18:57;;;;;;;20.87;13.70;;;;;;;;;;5077660;28;20175;-71
2022/01/10 13:21:35;;;;;;;22.33;13.33;;;;;;;;;;5073011;28;20681;-71
2022/01/10 13:24:06;;;;;;;19.53;11.93;;;;;;;;;;5068936;28;20242;-71
2022/01/10 13:26:31;;;;;;;21.73;13.40;;;;;;;;;;5074270;28;20183;-71
2022/01/10 13:28:56;;;;;;;18.57;12.90;;;;;;;;;;5072264;28;20180;-71
2022/01/10 13:31:33;;;;;;;19.40;13.03;;;;;;;;;;5075988;28;20304;-71
2022/01/10 13:33:58;;;;;;;18.03;12.20;;;;;;;;;;5070854;28;20649;-71
2022/01/10 13:36:23;;;;;;;19.13;13.50;;;;;;;;;;5071812;28;20302;-71
2022/01/10 13:38:49;;;;;;;18.30;11.97;;;;;;;;;;5051748;28;20214;-71
2022/01/10 13:41:14;;;;;;;18.27;11.50;;;;;;;;;;5070700;28;20211;-71
2022/01/10 13:43:39;;;;;;;19.40;12.23;;;;;;;;;;5077782;28;20272;-71
2022/01/10 13:46:07;;;;;;;19.63;13.63;;;;;;;;;;5071104;28;20184;-71
2022/01/10 13:48:37;;;;;;;22.20;13.27;;;;;;;;;;5077873;28;20177;-71
2022/01/10 13:51:02;;;;;;;17.60;12.00;;;;;;;;;;5048307;28;20302;-71
2022/01/10 13:53:42;;;;;;;24.17;15.63;;;;;;;;;;5070536;28;20294;-71
2022/01/10 13:56:14;;;;;;;19.83;11.20;;;;;;;;;;5073768;28;20779;-72
2022/01/10 13:58:41;;;;;;;16.03;10.83;;;;;;;;;;5071764;28;20231;-72
2022/01/10 14:01:09;;;;;;;24.40;13.23;;;;;;;;;;5070349;28;20681;-72
2022/01/10 14:03:34;;;;;;;18.97;12.53;;;;;;;;;;5074517;28;20564;-70
2022/01/10 14:06:03;;;;;;;19.87;12.13;;;;;;;;;;5069831;28;20164;-71
2022/01/10 14:08:28;;;;;;;21.57;13.13;;;;;;;;;;5067627;28;20179;-72
2022/01/10 14:10:54;;;;;;;20.40;12.50;;;;;;;;;;5071012;28;20870;-72
2022/01/10 14:13:19;;;;;;;20.20;11.57;;;;;;;;;;5070131;28;20188;-72
2022/01/10 14:15:44;;;;;;;22.63;13.57;;;;;;;;;;5070596;28;20597;-71
2022/01/10 14:18:09;;;;;;;17.30;11.77;;;;;;;;;;5072786;28;20207;-71